Time;durP1;ratioP1;P1;durP2;ratioP2;P2;SDS_P1;SDS_P2;PMS_P1;PMS_P2;Temp;Humidity;BMP_temperature;BMP_pressure;BME280_temperature;BME280_humidity;BME280_pressure;Samples;Min_cycle;Max_cycle;Signal;HPM_P1;HPM_P2
2023/06/15 00:00:17;;;;;;;1999.90;999.90;;;16.00;91.60;;;;;;5034743;28;20133;-73
2023/06/15 00:02:42;;;;;;;1999.90;999.90;;;16.00;92.20;;;;;;5033270;28;20590;-73
2023/06/15 00:05:08;;;;;;;1999.90;999.90;;;16.00;91.70;;;;;;5035062;28;20121;-73
2023/06/15 00:07:34;;;;;;;1999.90;999.90;;;16.00;92.10;;;;;;5034956;28;20038;-73
2023/06/15 00:10:00;;;;;;;1999.90;999.90;;;15.90;91.80;;;;;;5034985;28;20387;-73
2023/06/15 00:12:25;;;;;;;1999.90;999.90;;;15.90;91.80;;;;;;5034487;28;20077;-73
2023/06/15 00:14:51;;;;;;;1999.90;999.90;;;15.80;91.80;;;;;;5035113;28;20113;-73
2023/06/15 00:17:17;;;;;;;1999.90;999.90;;;15.70;92.10;;;;;;5034164;28;20038;-73
2023/06/15 00:19:44;;;;;;;1999.90;999.90;;;15.70;92.60;;;;;;5034802;28;20096;-73
2023/06/15 00:22:14;;;;;;;1999.90;999.90;;;15.60;92.20;;;;;;5033311;28;20036;-73
2023/06/15 00:24:41;;;;;;;1999.90;999.90;;;15.50;91.90;;;;;;5034628;28;20038;-73
2023/06/15 00:27:08;;;;;;;1999.90;999.90;;;15.50;91.90;;;;;;5034338;28;20478;-73
2023/06/15 00:29:33;;;;;;;1999.90;999.90;;;15.50;91.80;;;;;;5034643;28;20455;-72
2023/06/15 00:31:59;;;;;;;1999.90;999.90;;;15.60;91.60;;;;;;5034543;28;20096;-73
2023/06/15 00:34:24;;;;;;;1999.90;999.90;;;15.70;91.20;;;;;;5035046;28;20042;-73
2023/06/15 00:36:50;;;;;;;1999.90;999.90;;;15.80;91.40;;;;;;5033574;28;20070;-73
2023/06/15 00:39:15;;;;;;;1999.90;999.90;;;15.80;91.10;;;;;;5033894;28;20408;-73
2023/06/15 00:41:42;;;;;;;1999.90;999.90;;;15.80;91.00;;;;;;5034213;28;20045;-73
2023/06/15 00:44:08;;;;;;;1999.90;999.90;;;15.80;91.20;;;;;;5034625;28;20201;-73
2023/06/15 00:46:34;;;;;;;1999.90;999.90;;;15.80;91.00;;;;;;5034315;28;20566;-73
2023/06/15 00:49:00;;;;;;;1999.90;999.90;;;15.70;91.30;;;;;;5032638;28;20616;-73
2023/06/15 00:51:27;;;;;;;1999.90;999.90;;;15.60;91.20;;;;;;5034177;28;20065;-73
2023/06/15 00:53:52;;;;;;;1999.90;999.90;;;15.70;91.50;;;;;;5034310;28;20069;-73
2023/06/15 00:56:18;;;;;;;1999.90;999.90;;;15.70;91.40;;;;;;5032343;28;20122;-73
2023/06/15 00:58:44;;;;;;;1999.90;999.90;;;15.70;91.30;;;;;;5033519;28;20034;-73
2023/06/15 01:01:10;;;;;;;1999.90;999.90;;;15.60;91.40;;;;;;5033257;28;20185;-73
2023/06/15 01:03:36;;;;;;;1999.90;999.90;;;15.60;91.50;;;;;;5031860;28;20092;-73
2023/06/15 01:06:12;;;;;;;1999.90;999.90;;;15.70;91.20;;;;;;5033308;28;20103;-73
2023/06/15 01:08:40;;;;;;;1999.90;999.90;;;15.60;91.50;;;;;;5034218;28;20038;-73
2023/06/15 01:11:05;;;;;;;1999.90;999.90;;;15.60;91.50;;;;;;5033581;28;20065;-73
2023/06/15 01:13:33;;;;;;;1999.90;999.90;;;15.60;91.70;;;;;;5033283;28;20511;-73
2023/06/15 01:16:01;;;;;;;1999.90;999.90;;;15.50;92.30;;;;;;5033768;28;20038;-73
2023/06/15 01:18:29;;;;;;;1999.90;999.90;;;15.40;92.00;;;;;;5033947;28;20045;-73
2023/06/15 01:20:56;;;;;;;1999.90;999.90;;;15.30;92.70;;;;;;5033480;28;20973;-73
2023/06/15 01:23:28;;;;;;;1999.90;999.90;;;15.20;93.10;;;;;;5034203;28;20490;-73
2023/06/15 01:26:05;;;;;;;1999.90;999.90;;;15.10;93.20;;;;;;5033877;28;20034;-73
2023/06/15 01:28:33;;;;;;;1999.90;999.90;;;15.00;93.10;;;;;;5034213;28;20030;-72
2023/06/15 01:30:59;;;;;;;1999.90;999.90;;;14.90;93.30;;;;;;5033275;28;20026;-73
2023/06/15 01:33:25;;;;;;;1999.90;999.90;;;14.90;93.70;;;;;;5034368;28;20148;-73
2023/06/15 01:35:51;;;;;;;1999.90;999.90;;;14.80;94.00;;;;;;5033800;28;20030;-73
2023/06/15 01:38:23;;;;;;;1999.90;999.90;;;14.70;94.00;;;;;;5033926;28;20037;-73
2023/06/15 01:40:51;;;;;;;1999.90;999.90;;;14.70;94.40;;;;;;5033592;28;20034;-73
2023/06/15 01:43:22;;;;;;;1999.90;999.90;;;14.50;94.70;;;;;;5033422;28;20531;-73
2023/06/15 01:45:49;;;;;;;1999.90;999.90;;;14.50;95.10;;;;;;5032090;28;20045;-73
2023/06/15 01:48:15;;;;;;;1999.90;999.90;;;14.30;95.20;;;;;;5034327;28;20054;-73
2023/06/15 01:50:41;;;;;;;1999.90;999.90;;;14.30;95.20;;;;;;5036537;28;20123;-72
2023/06/15 01:53:07;;;;;;;1999.90;999.90;;;14.20;94.90;;;;;;5017231;28;20026;-72
2023/06/15 01:55:34;;;;;;;1999.90;999.90;;;14.20;95.10;;;;;;5024284;28;20042;-72
2023/06/15 01:57:59;;;;;;;1999.90;999.90;;;14.10;95.40;;;;;;5037018;28;20120;-73
2023/06/15 02:00:25;;;;;;;1999.90;999.90;;;14.10;95.60;;;;;;5035335;28;20042;-73
2023/06/15 02:02:51;;;;;;;1999.90;999.90;;;14.00;95.50;;;;;;5036824;28;20038;-73
2023/06/15 02:05:17;;;;;;;1999.90;999.90;;;14.00;96.00;;;;;;5036610;28;20133;-73
2023/06/15 02:07:43;;;;;;;1999.90;999.90;;;14.00;95.80;;;;;;5037045;28;20073;-73
2023/06/15 02:10:09;;;;;;;1999.90;999.90;;;13.90;96.20;;;;;;5036597;28;20065;-73
2023/06/15 02:12:35;;;;;;;1999.90;999.90;;;13.80;96.30;;;;;;5036314;28;20121;-73
2023/06/15 02:15:02;;;;;;;1999.90;999.90;;;13.80;96.20;;;;;;5037207;28;20495;-73
2023/06/15 02:17:41;;;;;;;1999.90;999.90;;;13.80;96.30;;;;;;5036552;28;20042;-73
2023/06/15 02:20:08;;;;;;;1999.90;999.90;;;13.70;96.30;;;;;;5024147;28;20038;-73
2023/06/15 02:22:34;;;;;;;1999.90;999.90;;;13.90;95.80;;;;;;5036455;28;20046;-73
2023/06/15 02:24:59;;;;;;;1999.90;999.90;;;13.90;95.90;;;;;;5036958;28;20042;-73
2023/06/15 02:27:25;;;;;;;1999.90;999.90;;;13.90;95.80;;;;;;5036205;28;20073;-73
2023/06/15 02:29:51;;;;;;;1999.90;999.90;;;13.90;95.60;;;;;;5036506;28;20128;-73
2023/06/15 02:32:34;;;;;;;1999.90;999.90;;;13.90;95.60;;;;;;5036773;28;20128;-73
2023/06/15 02:35:03;;;;;;;1999.90;999.90;;;13.80;95.70;;;;;;5036639;28;20525;-72
2023/06/15 02:37:28;;;;;;;1999.90;999.90;;;13.80;96.30;;;;;;5036330;28;20040;-73
2023/06/15 02:39:54;;;;;;;1999.90;999.90;;;13.80;96.30;;;;;;5036182;28;20064;-73
2023/06/15 02:42:20;;;;;;;1999.90;999.90;;;13.70;96.60;;;;;;5034747;28;20071;-73
2023/06/15 02:44:46;;;;;;;1999.90;999.90;;;13.60;97.10;;;;;;5036551;28;20555;-73
2023/06/15 02:47:11;;;;;;;1999.90;999.90;;;13.60;97.00;;;;;;5034602;28;20038;-73
2023/06/15 02:49:37;;;;;;;1999.90;999.90;;;13.60;96.90;;;;;;5036211;28;20030;-73
2023/06/15 02:52:03;;;;;;;1999.90;999.90;;;13.50;97.00;;;;;;5035964;28;20057;-73
2023/06/15 02:54:29;;;;;;;1999.90;999.90;;;13.40;97.40;;;;;;5035962;28;20064;-73
2023/06/15 02:56:55;;;;;;;1999.90;999.90;;;13.50;96.80;;;;;;5035994;28;20026;-73
2023/06/15 02:59:25;;;;;;;1999.90;999.90;;;13.40;96.70;;;;;;5035791;28;20545;-73
2023/06/15 03:01:52;;;;;;;1999.90;999.90;;;13.50;96.60;;;;;;5035090;28;20030;-73
2023/06/15 03:04:21;;;;;;;1999.90;999.90;;;13.50;97.20;;;;;;5036285;28;20546;-72
2023/06/15 03:06:50;;;;;;;1999.90;999.90;;;13.50;96.60;;;;;;5035650;28;20490;-73
2023/06/15 03:09:17;;;;;;;1999.90;999.90;;;13.50;96.90;;;;;;5034456;28;20034;-73
2023/06/15 03:11:43;;;;;;;1999.90;999.90;;;13.50;96.60;;;;;;5035507;28;20058;-73
2023/06/15 03:14:12;;;;;;;1999.90;999.90;;;13.50;96.90;;;;;;5035922;28;20068;-73
2023/06/15 03:16:39;;;;;;;1999.90;999.90;;;13.50;96.90;;;;;;5035772;28;20030;-73
2023/06/15 03:19:05;;;;;;;1999.90;999.90;;;13.50;97.10;;;;;;5035708;28;20458;-72
2023/06/15 03:21:31;;;;;;;1999.90;999.90;;;13.50;96.90;;;;;;5035063;28;20038;-72
2023/06/15 03:23:57;;;;;;;1999.90;999.90;;;13.40;96.90;;;;;;5035841;28;20516;-73
2023/06/15 03:26:23;;;;;;;1999.90;999.90;;;13.50;96.80;;;;;;5035341;28;20034;-73
2023/06/15 03:28:49;;;;;;;1999.90;999.90;;;13.60;96.90;;;;;;5035890;28;20042;-73
2023/06/15 03:31:18;;;;;;;1999.90;999.90;;;13.50;96.90;;;;;;5035225;28;20033;-72
2023/06/15 03:33:47;;;;;;;1999.90;999.90;;;13.50;97.50;;;;;;5035227;28;20431;-73
2023/06/15 03:36:18;;;;;;;1999.90;999.90;;;13.50;97.60;;;;;;5035455;28;20497;-73
2023/06/15 03:38:43;;;;;;;1999.90;999.90;;;13.40;97.80;;;;;;5035698;28;20080;-73
2023/06/15 03:41:09;;;;;;;1999.90;999.90;;;13.40;98.10;;;;;;5035511;28;20084;-73
2023/06/15 03:43:37;;;;;;;1999.90;999.90;;;13.40;98.70;;;;;;5035749;28;20046;-72
2023/06/15 03:46:06;;;;;;;1999.90;999.90;;;13.30;98.30;;;;;;5035430;28;20038;-73
2023/06/15 03:48:32;;;;;;;1999.90;999.90;;;13.30;98.40;;;;;;5035470;28;20030;-73
2023/06/15 03:50:58;;;;;;;1999.90;999.90;;;13.20;98.60;;;;;;5035091;28;20038;-73
2023/06/15 03:53:26;;;;;;;1999.90;999.90;;;13.20;99.10;;;;;;5033542;28;20394;-73
2023/06/15 03:55:51;;;;;;;1999.90;999.90;;;13.10;98.80;;;;;;5034277;28;20500;-73
2023/06/15 03:58:19;;;;;;;1999.90;999.90;;;13.10;99.00;;;;;;5033903;28;20030;-73
2023/06/15 04:00:45;;;;;;;1999.90;999.90;;;13.10;99.30;;;;;;5035181;28;20507;-73
2023/06/15 04:03:12;;;;;;;1999.90;999.90;;;13.10;99.40;;;;;;5027228;28;20137;-73
2023/06/15 04:05:38;;;;;;;1999.90;999.90;;;13.10;99.20;;;;;;5035053;28;20065;-73
2023/06/15 04:08:03;;;;;;;1999.90;999.90;;;13.10;99.00;;;;;;5034989;28;20169;-73
2023/06/15 04:10:29;;;;;;;1999.90;999.90;;;13.10;99.00;;;;;;5033739;28;20041;-73
2023/06/15 04:12:54;;;;;;;1999.90;999.90;;;13.10;99.30;;;;;;5034516;28;20041;-72
2023/06/15 04:15:20;;;;;;;1999.90;999.90;;;13.20;99.40;;;;;;5034661;28;20408;-73
2023/06/15 04:17:48;;;;;;;1999.90;999.90;;;13.20;99.10;;;;;;5034915;28;20034;-73
2023/06/15 04:20:14;;;;;;;1999.90;999.90;;;13.20;99.20;;;;;;5034670;28;20122;-73
2023/06/15 04:22:40;;;;;;;1999.90;999.90;;;13.20;99.10;;;;;;5034344;28;20512;-73
2023/06/15 04:25:06;;;;;;;1999.90;999.90;;;13.40;99.00;;;;;;5034823;28;20483;-72
2023/06/15 04:27:34;;;;;;;1999.90;999.90;;;13.40;99.00;;;;;;5035194;28;20077;-73
2023/06/15 04:30:00;;;;;;;1999.90;999.90;;;13.40;98.80;;;;;;5034797;28;20516;-72
2023/06/15 04:32:29;;;;;;;1999.90;999.90;;;13.40;99.20;;;;;;5034157;28;20122;-72
2023/06/15 04:34:59;;;;;;;1999.90;999.90;;;13.50;99.00;;;;;;5032617;28;20499;-73
2023/06/15 04:37:28;;;;;;;1999.90;999.90;;;13.50;99.20;;;;;;5035284;28;20030;-73
2023/06/15 04:39:56;;;;;;;1999.90;999.90;;;13.50;99.20;;;;;;5034721;28;20049;-74
2023/06/15 04:42:23;;;;;;;1999.90;999.90;;;13.60;98.80;;;;;;5032653;28;20573;-74
2023/06/15 04:44:49;;;;;;;1999.90;999.90;;;13.60;98.70;;;;;;5032660;28;20136;-73
2023/06/15 04:47:14;;;;;;;1999.90;999.90;;;13.70;98.50;;;;;;5034749;28;20109;-74
2023/06/15 04:49:41;;;;;;;1999.90;999.90;;;13.70;98.40;;;;;;5035221;28;20049;-73
2023/06/15 04:52:08;;;;;;;1999.90;999.90;;;13.80;98.30;;;;;;5034024;28;20036;-74
2023/06/15 04:54:34;;;;;;;1999.90;999.90;;;13.90;97.90;;;;;;5034361;28;20045;-74
2023/06/15 04:56:59;;;;;;;1999.90;999.90;;;14.00;98.10;;;;;;5035372;28;20380;-78
2023/06/15 04:59:25;;;;;;;1999.90;999.90;;;14.00;97.70;;;;;;5034263;28;20046;-74
2023/06/15 05:01:50;;;;;;;1999.90;999.90;;;14.10;97.60;;;;;;5035518;28;20040;-73
2023/06/15 05:04:16;;;;;;;1999.90;999.90;;;14.10;97.50;;;;;;5035882;28;20042;-74
2023/06/15 05:06:42;;;;;;;1999.90;999.90;;;14.20;97.50;;;;;;5035315;28;20480;-73
2023/06/15 05:09:08;;;;;;;1999.90;999.90;;;14.30;97.60;;;;;;5035797;28;20042;-74
2023/06/15 05:11:33;;;;;;;1999.90;999.90;;;14.30;97.30;;;;;;5035237;28;20037;-74
2023/06/15 05:13:59;;;;;;;1999.90;999.90;;;14.50;97.40;;;;;;5035515;28;20034;-74
2023/06/15 05:16:24;;;;;;;1999.90;999.90;;;14.60;97.20;;;;;;5035487;28;20084;-74
2023/06/15 05:18:52;;;;;;;1999.90;999.90;;;14.70;96.90;;;;;;5035713;28;20042;-73
2023/06/15 05:21:18;;;;;;;1999.90;999.90;;;14.80;96.80;;;;;;5033832;28;20033;-73
2023/06/15 05:23:44;;;;;;;1999.90;999.90;;;14.90;96.90;;;;;;5036365;28;20105;-73
2023/06/15 05:26:09;;;;;;;1999.90;999.90;;;15.00;96.00;;;;;;5039166;28;20411;-74
2023/06/15 05:28:35;;;;;;;1999.90;999.90;;;15.10;95.60;;;;;;5037640;28;20392;-74
2023/06/15 05:31:02;;;;;;;1999.90;999.90;;;15.20;95.40;;;;;;5038448;28;20032;-73
2023/06/15 05:33:27;;;;;;;1999.90;999.90;;;15.30;95.10;;;;;;5038682;28;20021;-74
2023/06/15 05:35:53;;;;;;;1999.90;999.90;;;15.40;95.00;;;;;;5038203;28;20492;-74
2023/06/15 05:38:20;;;;;;;1999.90;999.90;;;15.50;95.00;;;;;;5038084;28;20045;-74
2023/06/15 05:40:46;;;;;;;1999.90;999.90;;;15.70;95.00;;;;;;5038452;28;20209;-73
2023/06/15 05:43:11;;;;;;;1999.90;999.90;;;15.80;94.90;;;;;;5039160;28;20169;-74
2023/06/15 05:45:37;;;;;;;1999.90;999.90;;;15.90;94.60;;;;;;5037433;28;20515;-75
2023/06/15 05:48:02;;;;;;;1999.90;999.90;;;16.00;94.50;;;;;;5038893;28;20408;-74
2023/06/15 05:50:28;;;;;;;1999.90;999.90;;;16.00;94.40;;;;;;5036966;28;20484;-74
2023/06/15 05:52:53;;;;;;;1999.90;999.90;;;16.10;94.30;;;;;;5036345;28;20173;-74
2023/06/15 05:55:19;;;;;;;1999.90;999.90;;;16.30;94.20;;;;;;5037961;28;20042;-74
2023/06/15 05:57:44;;;;;;;1999.90;999.90;;;16.30;93.80;;;;;;5038354;28;20034;-74
2023/06/15 06:00:11;;;;;;;1999.90;999.90;;;16.40;93.60;;;;;;5036608;28;20387;-74
2023/06/15 06:02:36;;;;;;;1999.90;999.90;;;16.50;93.40;;;;;;5037707;28;20034;-74
2023/06/15 06:05:02;;;;;;;1999.90;999.90;;;16.60;93.50;;;;;;5038563;28;20045;-74
2023/06/15 06:07:27;;;;;;;1999.90;999.90;;;16.60;92.70;;;;;;5037820;28;20396;-74
2023/06/15 06:09:53;;;;;;;1999.90;999.90;;;16.70;92.80;;;;;;5038253;28;20391;-74
2023/06/15 06:12:18;;;;;;;1999.90;999.90;;;16.70;92.50;;;;;;5037946;28;20394;-75
2023/06/15 06:14:45;;;;;;;1999.90;999.90;;;16.70;92.50;;;;;;5037987;28;20550;-74
2023/06/15 06:17:10;;;;;;;1999.90;999.90;;;16.80;92.50;;;;;;5036151;28;20042;-74
2023/06/15 06:19:36;;;;;;;1999.90;999.90;;;16.90;92.50;;;;;;5038554;28;20428;-75
2023/06/15 06:22:01;;;;;;;1999.90;999.90;;;17.00;92.50;;;;;;5036815;28;20044;-74
2023/06/15 06:24:27;;;;;;;1999.90;999.90;;;17.10;92.00;;;;;;5038077;28;20052;-73
2023/06/15 06:26:52;;;;;;;1999.90;999.90;;;17.10;92.40;;;;;;5036653;28;20030;-75
2023/06/15 06:29:18;;;;;;;1999.90;999.90;;;17.20;91.90;;;;;;5037858;28;20089;-76
2023/06/15 06:31:43;;;;;;;1999.90;999.90;;;17.30;91.90;;;;;;5037068;28;20567;-75
2023/06/15 06:34:09;;;;;;;1999.90;999.90;;;17.30;91.90;;;;;;5035179;28;20048;-75
2023/06/15 06:36:34;;;;;;;1999.90;999.90;;;17.40;91.60;;;;;;5037185;28;20034;-75
2023/06/15 06:39:00;;;;;;;1999.90;999.90;;;17.50;91.40;;;;;;5036424;28;20062;-75
2023/06/15 06:41:26;;;;;;;1999.90;999.90;;;17.60;91.60;;;;;;5035445;28;20030;-75
2023/06/15 06:43:52;;;;;;;1999.90;999.90;;;17.80;91.40;;;;;;5037346;28;20038;-75
2023/06/15 06:46:17;;;;;;;1999.90;999.90;;;18.00;91.10;;;;;;5038220;28;20041;-75
2023/06/15 06:48:43;;;;;;;1999.90;999.90;;;18.10;90.80;;;;;;5035920;28;20038;-76
2023/06/15 06:51:08;;;;;;;1999.90;999.90;;;18.20;90.00;;;;;;5037655;28;20030;-75
2023/06/15 06:53:34;;;;;;;1999.90;999.90;;;18.40;90.00;;;;;;5037421;28;20042;-75
2023/06/15 06:55:59;;;;;;;1999.90;999.90;;;18.50;89.70;;;;;;5037039;28;20129;-75
2023/06/15 06:58:25;;;;;;;1999.90;999.90;;;18.60;88.40;;;;;;5037055;28;20048;-74
2023/06/15 07:00:50;;;;;;;1999.90;999.90;;;18.70;88.40;;;;;;5037560;28;20137;-75
2023/06/15 07:03:16;;;;;;;1999.90;999.90;;;18.80;88.00;;;;;;5038023;28;20038;-75
2023/06/15 07:05:42;;;;;;;1999.90;999.90;;;18.80;88.40;;;;;;5037606;28;20042;-75
2023/06/15 07:08:07;;;;;;;1999.90;999.90;;;18.90;87.40;;;;;;5036939;28;20124;-75
2023/06/15 07:10:33;;;;;;;1999.90;999.90;;;19.10;87.10;;;;;;5037394;28;20030;-75
2023/06/15 07:12:58;;;;;;;1999.90;999.90;;;19.30;86.60;;;;;;5037260;28;20030;-75
2023/06/15 07:15:27;;;;;;;1999.90;999.90;;;19.50;86.70;;;;;;5036934;28;20113;-75
2023/06/15 07:17:53;;;;;;;1999.90;999.90;;;19.60;85.40;;;;;;5035985;28;20109;-74
2023/06/15 07:20:18;;;;;;;1999.90;999.90;;;19.90;84.30;;;;;;5035228;28;20117;-75
2023/06/15 07:22:44;;;;;;;1999.90;999.90;;;20.20;83.30;;;;;;5038450;28;20026;-75
2023/06/15 07:25:10;;;;;;;1999.90;999.90;;;20.40;82.10;;;;;;5039050;28;20046;-77
2023/06/15 07:27:35;;;;;;;1999.90;999.90;;;20.60;83.50;;;;;;5038579;28;20021;-76
2023/06/15 07:30:01;;;;;;;1999.90;999.90;;;20.80;82.50;;;;;;5039836;28;20042;-76
2023/06/15 07:32:26;;;;;;;1999.90;999.90;;;21.00;81.70;;;;;;5039529;28;20034;-76
2023/06/15 07:34:52;;;;;;;1999.90;999.90;;;21.30;81.10;;;;;;5038278;28;20049;-76
2023/06/15 07:37:18;;;;;;;1999.90;999.90;;;21.30;81.90;;;;;;5039264;28;20034;-77
2023/06/15 07:39:43;;;;;;;1999.90;999.90;;;21.50;79.10;;;;;;5038407;28;20034;-76
2023/06/15 07:42:09;;;;;;;1999.90;999.90;;;21.30;80.40;;;;;;5038315;28;20030;-77
2023/06/15 07:44:35;;;;;;;1999.90;999.90;;;21.40;81.00;;;;;;5037518;28;20042;-74
2023/06/15 07:47:01;;;;;;;1999.90;999.90;;;21.40;81.40;;;;;;5038756;28;20836;-75
2023/06/15 07:49:26;;;;;;;1999.90;999.90;;;21.40;81.90;;;;;;5037474;28;20038;-75
2023/06/15 07:51:52;;;;;;;1999.90;999.90;;;21.30;81.90;;;;;;5036583;28;20030;-76
2023/06/15 07:54:17;;;;;;;1999.90;999.90;;;21.60;81.00;;;;;;5036920;28;20034;-75
2023/06/15 07:56:45;;;;;;;1999.90;999.90;;;21.80;79.90;;;;;;5034990;28;20431;-76
2023/06/15 07:59:11;;;;;;;1999.90;999.90;;;21.90;78.70;;;;;;5035350;28;20037;-76
2023/06/15 08:01:36;;;;;;;1999.90;999.90;;;22.20;79.20;;;;;;5035887;28;20041;-76
2023/06/15 08:04:02;;;;;;;1999.90;999.90;;;22.30;77.00;;;;;;5036600;28;20042;-76
2023/06/15 08:06:28;;;;;;;1999.90;999.90;;;22.40;77.30;;;;;;5034826;28;20448;-76
2023/06/15 08:08:54;;;;;;;1999.90;999.90;;;22.70;76.60;;;;;;5034796;28;20048;-76
2023/06/15 08:11:19;;;;;;;1999.90;999.90;;;22.90;76.20;;;;;;5036008;28;20088;-75
2023/06/15 08:13:45;;;;;;;1999.90;999.90;;;23.00;76.20;;;;;;5036123;28;20077;-76
2023/06/15 08:16:10;;;;;;;1999.90;999.90;;;22.80;76.10;;;;;;5034223;28;20068;-76
2023/06/15 08:18:36;;;;;;;1999.90;999.90;;;23.10;75.00;;;;;;5035746;28;20034;-76
2023/06/15 08:21:01;;;;;;;1999.90;999.90;;;23.20;75.90;;;;;;5034689;28;20037;-75
2023/06/15 08:23:27;;;;;;;1999.90;999.90;;;23.30;73.90;;;;;;5036207;28;20038;-76
2023/06/15 08:25:53;;;;;;;1999.90;999.90;;;23.50;72.50;;;;;;5035758;28;20053;-75
2023/06/15 08:28:19;;;;;;;1999.90;999.90;;;23.40;72.80;;;;;;5035552;28;20503;-75
2023/06/15 08:30:45;;;;;;;1999.90;999.90;;;23.30;73.60;;;;;;5036254;28;20037;-75
2023/06/15 08:33:10;;;;;;;1999.90;999.90;;;23.60;74.80;;;;;;5035209;28;20030;-76
2023/06/15 08:35:36;;;;;;;1999.90;999.90;;;23.70;71.40;;;;;;5033987;28;20041;-76
2023/06/15 08:38:02;;;;;;;1999.90;999.90;;;23.60;72.80;;;;;;5035434;28;20104;-75
2023/06/15 08:40:27;;;;;;;1999.90;999.90;;;23.80;71.90;;;;;;5034304;28;20443;-76
2023/06/15 08:42:55;;;;;;;1999.90;999.90;;;24.00;70.80;;;;;;5035902;28;20562;-75
2023/06/15 08:45:21;;;;;;;1999.90;999.90;;;24.30;69.90;;;;;;5035071;28;20045;-76
2023/06/15 08:47:47;;;;;;;1999.90;999.90;;;24.40;69.60;;;;;;5035392;28;20030;-76
2023/06/15 08:50:12;;;;;;;1999.90;999.90;;;24.50;67.70;;;;;;5035412;28;20048;-76
2023/06/15 08:52:41;;;;;;;1999.90;999.90;;;24.60;67.70;;;;;;5037725;28;20426;-81
2023/06/15 08:55:08;;;;;;;1999.90;999.90;;;24.40;68.40;;;;;;5040040;28;20037;-76
2023/06/15 08:57:35;;;;;;;1999.90;999.90;;;24.50;67.40;;;;;;5035032;28;20045;-76
2023/06/15 09:00:08;;;;;;;1999.90;999.90;;;24.50;68.00;;;;;;5035690;28;20041;-75
2023/06/15 09:02:43;;;;;;;1999.90;999.90;;;24.70;68.80;;;;;;5034641;28;20038;-77
2023/06/15 09:05:09;;;;;;;1999.90;999.90;;;24.90;64.50;;;;;;5033257;28;20038;-77
2023/06/15 09:07:35;;;;;;;1999.90;999.90;;;25.00;66.80;;;;;;5034820;28;20030;-77
2023/06/15 09:10:27;;;;;;;1999.90;999.90;;;25.10;65.60;;;;;;5030978;28;20030;-78
2023/06/15 09:12:57;;;;;;;1999.90;999.90;;;25.30;64.50;;;;;;5016515;28;20058;-77
2023/06/15 09:15:24;;;;;;;1999.90;999.90;;;25.20;57.30;;;;;;5034251;28;20034;-76
2023/06/15 09:17:57;;;;;;;1999.90;999.90;;;25.50;58.80;;;;;;5034660;28;20574;-76
2023/06/15 09:20:25;;;;;;;1999.90;999.90;;;25.60;63.90;;;;;;5034250;28;20572;-77
2023/06/15 09:22:51;;;;;;;1999.90;999.90;;;25.70;64.20;;;;;;5034296;28;20038;-75
2023/06/15 09:25:21;;;;;;;1999.90;999.90;;;25.80;62.90;;;;;;5034594;28;20100;-78
2023/06/15 09:27:54;;;;;;;1999.90;999.90;;;25.90;62.90;;;;;;5034879;28;20834;-76
2023/06/15 09:30:20;;;;;;;1999.90;999.90;;;26.10;63.10;;;;;;5033831;28;20038;-81
2023/06/15 09:32:46;;;;;;;1999.90;999.90;;;26.20;63.20;;;;;;5034362;28;20176;-75
2023/06/15 09:35:13;;;;;;;1999.90;999.90;;;26.50;61.30;;;;;;5034893;28;20120;-79
2023/06/15 09:37:38;;;;;;;1999.90;999.90;;;26.40;62.60;;;;;;5034942;28;20041;-76
2023/06/15 09:40:07;;;;;;;1999.90;999.90;;;26.40;60.90;;;;;;5035899;28;20041;-78
2023/06/15 09:42:34;;;;;;;1999.90;999.90;;;26.30;61.50;;;;;;5034606;28;20134;-76
2023/06/15 09:45:02;;;;;;;1999.90;999.90;;;26.40;60.10;;;;;;5034063;28;20129;-78
2023/06/15 09:47:30;;;;;;;1999.90;999.90;;;26.30;60.20;;;;;;5034113;28;20049;-77
2023/06/15 09:49:55;;;;;;;1999.90;999.90;;;26.10;61.50;;;;;;5034023;28;20026;-78
2023/06/15 09:52:21;;;;;;;1999.90;999.90;;;26.40;61.60;;;;;;5032276;28;20109;-77
2023/06/15 09:54:48;;;;;;;1999.90;999.90;;;26.70;60.90;;;;;;5033696;28;20081;-77
2023/06/15 09:57:16;;;;;;;1999.90;999.90;;;26.70;58.20;;;;;;5033703;28;20117;-77
2023/06/15 09:59:41;;;;;;;1999.90;999.90;;;26.70;58.90;;;;;;5033981;28;20029;-77
2023/06/15 10:02:11;;;;;;;1999.90;999.90;;;26.70;58.20;;;;;;5033581;28;20443;-77
2023/06/15 10:04:40;;;;;;;1999.90;999.90;;;26.80;57.70;;;;;;5033610;28;20514;-77
2023/06/15 10:07:11;;;;;;;1999.90;999.90;;;27.00;56.40;;;;;;5033476;28;20056;-77
2023/06/15 10:09:47;;;;;;;1999.90;999.90;;;27.20;57.00;;;;;;5034890;28;20038;-77
2023/06/15 10:12:16;;;;;;;1999.90;999.90;;;27.10;57.50;;;;;;5036914;28;20030;-77
2023/06/15 10:14:53;;;;;;;1999.90;999.90;;;26.80;56.10;;;;;;5037176;28;20029;-77
2023/06/15 10:17:23;;;;;;;1999.90;999.90;;;27.10;56.40;;;;;;5037253;28;20128;-77
2023/06/15 10:19:52;;;;;;;1999.90;999.90;;;27.40;56.10;;;;;;5037303;28;20063;-75
2023/06/15 10:22:19;;;;;;;1999.90;999.90;;;27.60;55.80;;;;;;5037871;28;20134;-77
2023/06/15 10:24:45;;;;;;;1999.90;999.90;;;27.80;56.20;;;;;;5037682;28;20041;-78
2023/06/15 10:27:11;;;;;;;1999.90;999.90;;;27.70;56.40;;;;;;5036351;28;20032;-75
2023/06/15 10:30:04;;;;;;;1999.90;999.90;;;27.70;57.00;;;;;;5037390;28;20511;-76
2023/06/15 10:32:37;;;;;;;1999.90;999.90;;;27.80;53.20;;;;;;5036713;28;20126;-76
2023/06/15 10:35:25;;;;;;;1999.90;999.90;;;27.70;52.00;;;;;;5037054;28;20436;-76
2023/06/15 10:38:13;;;;;;;1999.90;999.90;;;27.70;53.40;;;;;;5035346;28;20038;-76
2023/06/15 10:40:44;;;;;;;1999.90;999.90;;;27.50;54.40;;;;;;5036710;28;20026;-77
2023/06/15 10:43:17;;;;;;;1999.90;999.90;;;27.30;57.70;;;;;;5036675;28;20134;-76
2023/06/15 10:45:42;;;;;;;1999.90;999.90;;;27.70;55.10;;;;;;5037373;28;20113;-76
2023/06/15 10:48:08;;;;;;;1999.90;999.90;;;27.40;54.40;;;;;;5035876;28;20113;-78
2023/06/15 10:50:48;;;;;;;1999.90;999.90;;;27.10;55.50;;;;;;5032386;28;20048;-76
2023/06/15 10:53:27;;;;;;;1999.90;999.90;;;27.50;55.40;;;;;;5036521;28;20604;-76
2023/06/15 10:55:54;;;;;;;1999.90;999.90;;;27.40;56.20;;;;;;5036112;28;20092;-77
2023/06/15 10:58:21;;;;;;;1999.90;999.90;;;27.00;57.30;;;;;;5035035;28;20036;-77
2023/06/15 11:01:07;;;;;;;1999.90;999.90;;;27.40;56.00;;;;;;5036558;28;20030;-76
2023/06/15 11:03:33;;;;;;;1999.90;999.90;;;27.80;54.80;;;;;;5035768;28;20041;-77
2023/06/15 11:06:10;;;;;;;1999.90;999.90;;;27.80;55.50;;;;;;5029134;28;20068;-77
2023/06/15 11:08:49;;;;;;;1999.90;999.90;;;27.80;54.00;;;;;;5035226;28;20046;-77
2023/06/15 11:11:18;;;;;;;1999.90;999.90;;;28.00;54.60;;;;;;5028552;28;20061;-77
2023/06/15 11:13:55;;;;;;;1999.90;999.90;;;28.30;55.50;;;;;;5016607;28;20081;-77
2023/06/15 11:16:25;;;;;;;1999.90;999.90;;;28.70;54.00;;;;;;5019346;28;20548;-77
2023/06/15 11:19:16;;;;;;;1999.90;999.90;;;29.10;53.50;;;;;;5016165;28;20023;-77
2023/06/15 11:21:50;;;;;;;1999.90;999.90;;;28.90;53.00;;;;;;5029454;28;20038;-77
2023/06/15 11:24:19;;;;;;;1999.90;999.90;;;28.90;51.20;;;;;;5016468;28;20046;-77
2023/06/15 11:26:48;;;;;;;1999.90;999.90;;;28.50;51.30;;;;;;5016280;28;20113;-76
2023/06/15 11:29:22;;;;;;;1999.90;999.90;;;28.30;50.50;;;;;;5016428;28;20034;-77
2023/06/15 11:31:50;;;;;;;1999.90;999.90;;;28.20;52.50;;;;;;5031167;28;20030;-77
2023/06/15 11:34:16;;;;;;;1999.90;999.90;;;28.50;50.60;;;;;;5016007;28;20045;-77
2023/06/15 11:36:42;;;;;;;1999.90;999.90;;;28.50;50.90;;;;;;5016236;28;20030;-77
2023/06/15 11:39:21;;;;;;;1999.90;999.90;;;28.80;50.00;;;;;;5016283;28;20058;-77
2023/06/15 11:41:51;;;;;;;1999.90;999.90;;;28.90;49.60;;;;;;5016345;28;20030;-77
2023/06/15 11:44:18;;;;;;;1999.90;999.90;;;28.50;50.30;;;;;;5015981;28;20119;-77
2023/06/15 11:46:54;;;;;;;1999.90;999.90;;;28.80;50.30;;;;;;5015791;28;20031;-77
2023/06/15 11:49:20;;;;;;;1999.90;999.90;;;29.10;48.10;;;;;;5016074;28;20031;-77
2023/06/15 11:51:47;;;;;;;1999.90;999.90;;;29.20;48.30;;;;;;5015507;28;20551;-77
2023/06/15 11:54:14;;;;;;;1999.90;999.90;;;29.10;47.60;;;;;;5015925;28;20034;-77
2023/06/15 11:56:44;;;;;;;1999.90;999.90;;;29.50;48.20;;;;;;5015695;28;20030;-77
2023/06/15 11:59:12;;;;;;;1999.90;999.90;;;29.80;47.80;;;;;;5019617;28;20038;-79